Time;durP1;ratioP1;P1;durP2;ratioP2;P2;SDS_P1;SDS_P2;PMS_P1;PMS_P2;Temp;Humidity;BMP_temperature;BMP_pressure;BME280_temperature;BME280_humidity;BME280_pressure;Samples;Min_cycle;Max_cycle;Signal;HPM_P1;HPM_P2
2022/08/31 00:04:11;;;;;;;4.80;4.30;;;;;;;17.39;100.00;96343.69;5003773;28;20226;-78
2022/08/31 00:06:40;;;;;;;5.17;4.67;;;;;;;17.43;100.00;96346.72;5006299;28;20200;-79
2022/08/31 00:09:07;;;;;;;5.63;4.50;;;;;;;17.34;100.00;96340.97;5013763;28;20234;-78
2022/08/31 00:11:34;;;;;;;7.53;4.60;;;;;;;17.39;100.00;96343.69;5005186;28;20211;-79
2022/08/31 00:14:05;;;;;;;5.73;4.60;;;;;;;17.40;100.00;96354.34;5027050;28;20277;-79
2022/08/31 00:16:36;;;;;;;6.03;4.40;;;;;;;17.37;100.00;96352.16;5021624;28;20207;-79
2022/08/31 00:19:03;;;;;;;6.00;4.53;;;;;;;17.33;100.00;96353.81;4998082;28;20239;-79
2022/08/31 00:21:30;;;;;;;4.93;4.43;;;;;;;17.33;100.00;96353.81;5016044;28;20203;-79
2022/08/31 00:23:59;;;;;;;4.30;3.90;;;;;;;17.22;100.00;96349.44;5014921;28;20255;-77
2022/08/31 00:26:26;;;;;;;6.33;4.00;;;;;;;17.26;100.00;96355.16;5015154;28;20293;-77
2022/08/31 00:28:53;;;;;;;4.30;3.90;;;;;;;17.24;100.00;96349.97;5022246;28;20206;-79
2022/08/31 00:31:21;;;;;;;6.80;4.30;;;;;;;17.20;100.00;96350.78;5018729;28;20216;-77
2022/08/31 00:33:51;;;;;;;5.20;4.33;;;;;;;17.20;100.00;96351.59;5017363;28;20215;-78
2022/08/31 00:36:21;;;;;;;4.80;4.40;;;;;;;17.25;100.00;96342.63;5004522;28;20221;-79
2022/08/31 00:38:49;;;;;;;5.17;4.40;;;;;;;17.27;100.00;96348.59;5000369;28;20337;-79
2022/08/31 00:41:20;;;;;;;4.37;3.97;;;;;;;17.32;100.00;96354.88;5006561;28;20210;-79
2022/08/31 00:43:49;;;;;;;5.17;4.67;;;;;;;17.36;100.00;96345.06;5007091;28;20188;-79
2022/08/31 00:46:19;;;;;;;4.57;4.17;;;;;;;17.39;100.00;96355.44;5013512;28;20302;-79
2022/08/31 00:48:53;;;;;;;5.00;4.50;;;;;;;17.44;100.00;96356.53;5002634;28;20211;-79
2022/08/31 00:51:21;;;;;;;4.83;4.33;;;;;;;17.46;100.00;96359.78;4996493;28;20235;-78
2022/08/31 00:53:48;;;;;;;4.80;3.97;;;;;;;17.40;100.00;96357.06;5020544;28;20199;-78
2022/08/31 00:56:17;;;;;;;3.80;3.50;;;;;;;17.34;100.00;96362.81;5019132;28;20229;-78
2022/08/31 00:58:45;;;;;;;4.60;4.20;;;;;;;17.34;100.00;96360.09;5025329;28;20195;-79
2022/08/31 01:01:13;;;;;;;5.13;4.60;;;;;;;17.39;100.00;96360.06;5018154;28;20273;-79
2022/08/31 01:03:41;;;;;;;5.90;4.60;;;;;;;17.42;100.00;96365.00;5016337;28;20271;-78
2022/08/31 01:06:08;;;;;;;6.13;5.20;;;;;;;17.42;100.00;96361.44;5018983;28;20219;-79
2022/08/31 01:08:36;;;;;;;6.23;4.30;;;;;;;17.39;100.00;96358.16;5011395;28;20200;-78
2022/08/31 01:11:03;;;;;;;5.87;4.93;;;;;;;17.35;100.00;96361.72;5019645;28;20227;-79
2022/08/31 01:13:32;;;;;;;6.83;4.93;;;;;;;17.35;100.00;96367.97;4999696;28;20225;-78
2022/08/31 01:16:05;;;;;;;5.07;4.07;;;;;;;17.38;100.00;96367.44;5001014;28;20204;-78
2022/08/31 01:18:34;;;;;;;5.20;4.40;;;;;;;17.40;100.00;96370.72;5008926;28;20232;-79
2022/08/31 01:21:09;;;;;;;5.50;4.87;;;;;;;17.43;100.00;96371.28;5018336;28;20298;-78
2022/08/31 01:23:42;;;;;;;5.50;5.00;;;;;;;17.41;100.00;96379.72;4992806;28;20231;-79
2022/08/31 01:26:11;;;;;;;6.07;4.70;;;;;;;17.39;100.00;96377.28;4999648;28;20225;-77
2022/08/31 01:28:38;;;;;;;7.80;5.57;;;;;;;17.42;100.00;96386.00;5016648;28;20215;-79
2022/08/31 01:31:09;;;;;;;6.07;5.40;;;;;;;17.39;100.00;96377.28;5000804;28;20251;-79
2022/08/31 01:33:39;;;;;;;5.20;4.70;;;;;;;17.40;100.00;96395.28;5015448;28;20273;-78
2022/08/31 01:36:08;;;;;;;7.60;5.00;;;;;;;17.38;100.00;96397.47;5015654;28;20200;-79
2022/08/31 01:38:37;;;;;;;5.63;4.83;;;;;;;17.31;100.00;96398.81;5004339;28;20228;-79
2022/08/31 01:41:05;;;;;;;6.50;5.03;;;;;;;17.27;100.00;96398.53;5028259;28;20213;-78
2022/08/31 01:43:35;;;;;;;5.53;5.03;;;;;;;17.29;100.00;96393.63;5017290;28;20230;-78
2022/08/31 01:46:03;;;;;;;5.37;4.63;;;;;;;17.28;100.00;96397.44;5013552;28;20207;-78
2022/08/31 01:48:31;;;;;;;7.03;5.13;;;;;;;17.30;100.00;96395.28;5009821;28;20199;-78
2022/08/31 01:50:58;;;;;;;8.97;4.70;;;;;;;17.30;100.00;96394.44;5022483;28;20317;-79
2022/08/31 01:53:25;;;;;;;5.20;4.70;;;;;;;17.28;100.00;96397.44;5009700;28;20203;-78
2022/08/31 01:55:54;;;;;;;6.70;5.00;;;;;;;17.27;100.00;96398.53;5032503;28;20361;-78
2022/08/31 01:58:21;;;;;;;5.20;4.70;;;;;;;17.29;100.00;96392.81;5022321;28;20207;-79
2022/08/31 02:00:51;;;;;;;10.80;5.20;;;;;;;17.24;100.00;96385.44;5004542;28;20277;-79
2022/08/31 02:03:18;;;;;;;7.77;5.17;;;;;;;17.25;100.00;96386.28;5011949;28;20215;-79
2022/08/31 02:05:45;;;;;;;8.43;5.47;;;;;;;17.24;100.00;96396.38;5019187;28;20269;-78
2022/08/31 02:08:12;;;;;;;5.97;4.87;;;;;;;17.23;100.00;96402.91;5022733;28;20203;-79
2022/08/31 02:10:41;;;;;;;8.00;4.83;;;;;;;17.16;100.00;96399.63;5021191;28;20280;-78
2022/08/31 02:13:11;;;;;;;6.47;5.53;;;;;;;17.10;100.00;96403.41;5004652;28;20207;-79
2022/08/31 02:15:39;;;;;;;6.40;5.30;;;;;;;17.06;100.00;96402.34;5015095;28;20243;-78
2022/08/31 02:18:06;;;;;;;5.30;4.73;;;;;;;17.01;100.00;96403.13;5026010;28;20203;-79
2022/08/31 02:20:33;;;;;;;6.07;5.43;;;;;;;16.98;100.00;96405.59;5022721;28;20294;-79
2022/08/31 02:23:02;;;;;;;7.30;5.23;;;;;;;17.01;100.00;96410.53;5021731;28;20296;-79
2022/08/31 02:25:30;;;;;;;8.10;5.53;;;;;;;17.03;100.00;96405.59;5021411;28;20214;-79
2022/08/31 02:27:58;;;;;;;6.83;4.90;;;;;;;17.08;100.00;96411.06;5027715;28;20229;-79
2022/08/31 02:30:26;;;;;;;5.30;4.47;;;;;;;17.07;100.00;96411.34;5011016;28;20229;-78
2022/08/31 02:32:54;;;;;;;5.70;4.70;;;;;;;17.07;100.00;96403.97;5019630;28;20203;-79
2022/08/31 02:35:21;;;;;;;8.50;5.30;;;;;;;17.07;100.00;96401.25;5018203;28;20230;-77
2022/08/31 02:37:48;;;;;;;7.07;5.43;;;;;;;17.08;100.00;96400.16;5000963;28;20239;-78
2022/08/31 02:40:16;;;;;;;6.70;4.97;;;;;;;17.05;100.00;96413.50;5019194;28;20200;-79
2022/08/31 02:42:43;;;;;;;5.67;4.70;;;;;;;17.06;100.00;96399.59;5004845;28;20293;-79
2022/08/31 02:45:10;;;;;;;6.23;4.83;;;;;;;17.01;100.00;96394.16;5019260;28;20199;-77
2022/08/31 02:47:39;;;;;;;6.03;4.67;;;;;;;16.98;100.00;96405.59;5030288;28;20213;-78
2022/08/31 02:50:26;;;;;;;5.83;5.23;;;;;;;16.96;100.00;96402.31;5007897;28;20216;-79
2022/08/31 02:52:55;;;;;;;7.77;6.20;;;;;;;17.00;100.00;96400.69;5018894;28;20231;-78
2022/08/31 02:55:23;;;;;;;6.10;5.50;;;;;;;17.02;100.00;96398.50;5019298;28;20234;-77
2022/08/31 02:57:50;;;;;;;5.80;5.07;;;;;;;17.03;100.00;96400.97;5017241;28;20356;-79
2022/08/31 03:00:19;;;;;;;5.50;5.00;;;;;;;17.06;100.00;96405.06;5000090;28;20269;-79
2022/08/31 03:02:50;;;;;;;6.60;5.23;;;;;;;17.03;100.00;96400.97;5018194;28;20200;-78
2022/08/31 03:05:17;;;;;;;6.03;5.43;;;;;;;17.06;100.00;96404.25;5023558;28;20199;-79
2022/08/31 03:07:44;;;;;;;7.07;5.43;;;;;;;17.06;100.00;96396.88;5024035;28;20218;-79
2022/08/31 03:10:14;;;;;;;5.90;5.30;;;;;;;17.07;100.00;96401.25;5007520;28;20222;-79
2022/08/31 03:12:41;;;;;;;6.77;6.07;;;;;;;17.04;100.00;96401.78;5001999;28;20204;-78
2022/08/31 03:15:10;;;;;;;6.00;4.53;;;;;;;17.05;100.00;96402.59;5003513;28;20222;-79
2022/08/31 03:17:38;;;;;;;5.30;4.70;;;;;;;17.01;100.00;96394.94;5009815;28;20223;-78
2022/08/31 03:20:09;;;;;;;5.17;4.67;;;;;;;17.03;100.00;96405.59;5019690;28;20269;-79
2022/08/31 03:22:37;;;;;;;6.07;5.00;;;;;;;17.04;100.00;96401.78;5004310;28;20207;-79
2022/08/31 03:25:05;;;;;;;6.53;5.03;;;;;;;17.04;100.00;96396.31;5003650;28;20287;-79
2022/08/31 03:27:33;;;;;;;5.50;4.90;;;;;;;16.99;100.00;96405.31;5000697;28;20212;-78
2022/08/31 03:30:00;;;;;;;5.83;5.20;;;;;;;16.97;100.00;96402.03;5019253;28;20280;-79
2022/08/31 03:32:32;;;;;;;7.20;4.87;;;;;;;16.98;100.00;96397.41;5007592;28;20218;-78
2022/08/31 03:35:01;;;;;;;8.47;5.77;;;;;;;16.97;100.00;96395.78;5023419;28;20303;-79
2022/08/31 03:37:29;;;;;;;7.47;5.03;;;;;;;16.99;100.00;96393.59;5020106;28;20259;-78
2022/08/31 03:39:59;;;;;;;6.23;5.63;;;;;;;16.96;100.00;96392.22;5016550;28;20270;-78
2022/08/31 03:42:27;;;;;;;7.17;5.50;;;;;;;16.91;100.00;96389.50;5020860;28;20230;-78
2022/08/31 03:44:55;;;;;;;6.53;5.50;;;;;;;16.82;100.00;96391.09;5020306;28;20226;-78
2022/08/31 03:47:28;;;;;;;6.17;5.57;;;;;;;16.82;100.00;96393.00;5027759;28;20191;-78
2022/08/31 03:49:55;;;;;;;7.23;5.70;;;;;;;16.82;100.00;96388.38;5017202;28;20215;-78
2022/08/31 03:52:26;;;;;;;8.33;5.90;;;;;;;16.82;100.00;96402.00;5000819;28;20207;-79
2022/08/31 03:55:03;;;;;;;8.20;6.90;;;;;;;16.86;100.00;96388.63;5016960;28;20290;-78
2022/08/31 03:57:30;;;;;;;7.30;5.87;;;;;;;16.84;100.00;96390.84;5018559;28;20322;-79
2022/08/31 03:59:59;;;;;;;6.67;6.07;;;;;;;16.87;100.00;96396.56;5019913;28;20196;-79
2022/08/31 04:02:41;;;;;;;8.43;6.00;;;;;;;16.89;100.00;96405.31;5010844;28;20203;-79
2022/08/31 04:05:28;;;;;;;8.27;5.93;;;;;;;16.95;100.00;96397.94;5003427;28;20289;-78
2022/08/31 04:08:15;;;;;;;6.50;5.40;;;;;;;16.94;100.00;96393.56;5002676;28;20207;-79
2022/08/31 04:10:49;;;;;;;11.50;7.37;;;;;;;16.92;100.00;96393.03;5006275;28;20231;-78
2022/08/31 04:13:34;;;;;;;10.10;6.00;;;;;;;16.87;100.00;96395.75;5001496;28;20299;-78
2022/08/31 04:16:22;;;;;;;7.80;5.97;;;;;;;16.95;100.00;96392.47;5003539;28;20320;-79
2022/08/31 04:18:55;;;;;;;6.93;5.97;;;;;;;16.93;100.00;96395.47;5002559;28;20219;-79
2022/08/31 04:21:25;;;;;;;6.33;5.13;;;;;;;16.94;100.00;96396.28;5018749;28;20213;-79
2022/08/31 04:23:54;;;;;;;6.03;5.53;;;;;;;17.02;100.00;96399.31;5022181;28;20199;-78
2022/08/31 04:26:24;;;;;;;9.57;6.80;;;;;;;17.05;100.00;96395.25;5021634;28;20201;-79
2022/08/31 04:28:52;;;;;;;6.07;5.43;;;;;;;17.07;100.00;96394.97;5000979;28;20266;-78
2022/08/31 04:31:20;;;;;;;5.90;5.23;;;;;;;17.08;100.00;96399.34;5013903;28;20242;-78
2022/08/31 04:33:48;;;;;;;7.57;5.60;;;;;;;17.07;100.00;96390.34;5017681;28;20219;-77
2022/08/31 04:36:18;;;;;;;5.90;5.30;;;;;;;17.12;100.00;96393.06;5020047;28;20215;-78
2022/08/31 04:38:46;;;;;;;7.23;5.23;;;;;;;17.11;100.00;96396.88;5019819;28;20239;-79
2022/08/31 04:41:17;;;;;;;8.17;4.87;;;;;;;17.16;100.00;96396.09;5006504;28;20202;-78
2022/08/31 04:43:47;;;;;;;6.40;4.77;;;;;;;17.05;100.00;96397.97;5020755;28;20273;-78
2022/08/31 04:46:15;;;;;;;4.80;4.37;;;;;;;16.99;100.00;96399.06;5013919;28;20211;-78
2022/08/31 04:48:42;;;;;;;5.40;4.90;;;;;;;17.02;100.00;96398.50;5022113;28;20241;-78
2022/08/31 04:51:12;;;;;;;6.20;5.43;;;;;;;17.11;100.00;96396.06;5001478;28;20285;-78
2022/08/31 04:53:41;;;;;;;5.57;4.97;;;;;;;17.16;100.00;96394.19;5021077;28;20211;-78
2022/08/31 04:56:13;;;;;;;6.80;5.23;;;;;;;17.23;100.00;96397.47;5020043;28;20285;-78
2022/08/31 04:58:41;;;;;;;5.93;5.10;;;;;;;17.31;100.00;96407.00;5015402;28;20211;-78
2022/08/31 05:01:10;;;;;;;7.53;5.13;;;;;;;17.30;100.00;96400.72;5019097;28;20214;-78
2022/08/31 05:04:16;;;;;;;8.53;4.83;;;;;;;17.32;100.00;96400.47;4989473;28;20303;-76
2022/08/31 05:06:46;;;;;;;5.73;4.20;;;;;;;17.34;100.00;96398.28;5018259;28;20212;-79
2022/08/31 05:09:17;;;;;;;6.10;4.80;;;;;;;17.34;100.00;96401.03;5003596;28;20630;-78
2022/08/31 05:11:48;;;;;;;6.73;5.70;;;;;;;17.34;100.00;96392.84;5024853;28;20223;-79
2022/08/31 05:14:20;;;;;;;6.23;5.40;;;;;;;17.26;100.00;96398.84;5019710;28;20215;-78
2022/08/31 05:16:53;;;;;;;11.30;6.43;;;;;;;17.23;100.00;96400.19;5016601;28;20195;-79
2022/08/31 05:19:22;;;;;;;7.07;5.37;;;;;;;17.25;100.00;96403.47;4999230;28;20208;-77
2022/08/31 05:21:49;;;;;;;9.00;5.17;;;;;;;17.27;100.00;96394.97;4996526;28;20200;-78
2022/08/31 05:24:21;;;;;;;7.20;5.03;;;;;;;17.25;100.00;96398.00;4997607;28;20204;-80
2022/08/31 05:26:50;;;;;;;7.83;6.10;;;;;;;17.27;100.00;96404.00;5004293;28;20204;-79
2022/08/31 05:29:20;;;;;;;5.93;5.13;;;;;;;17.27;100.00;96409.44;4998767;28;20199;-79
2022/08/31 05:31:49;;;;;;;8.13;5.17;;;;;;;17.25;100.00;96406.19;4999864;28;20243;-79
2022/08/31 05:34:18;;;;;;;5.70;5.10;;;;;;;17.27;100.00;96405.91;5017182;28;20210;-79
2022/08/31 05:36:50;;;;;;;6.33;5.63;;;;;;;17.23;100.00;96410.28;5017160;28;20298;-79
2022/08/31 05:39:17;;;;;;;8.70;6.60;;;;;;;17.13;100.00;96407.53;5013308;28;20208;-79
2022/08/31 05:41:48;;;;;;;6.97;5.77;;;;;;;17.10;100.00;96414.34;5006567;28;20203;-79
2022/08/31 05:44:18;;;;;;;9.83;6.77;;;;;;;17.11;100.00;96410.53;5019776;28;20211;-78
2022/08/31 05:46:45;;;;;;;6.60;5.63;;;;;;;17.12;100.00;96409.44;5006603;28;20326;-78
2022/08/31 05:49:12;;;;;;;8.70;7.10;;;;;;;17.13;100.00;96408.34;4997962;28;20295;-79
2022/08/31 05:51:42;;;;;;;10.83;6.17;;;;;;;17.13;100.00;96416.53;5001258;28;20311;-77
2022/08/31 05:54:10;;;;;;;8.83;6.40;;;;;;;17.08;100.00;96412.97;5010904;28;20250;-78
2022/08/31 05:56:40;;;;;;;8.60;5.97;;;;;;;17.12;100.00;96414.88;5015371;28;20243;-80
2022/08/31 05:59:07;;;;;;;8.90;5.60;;;;;;;17.15;100.00;96402.63;5003882;28;20290;-78
2022/08/31 06:01:37;;;;;;;8.03;5.60;;;;;;;17.14;100.00;96401.81;5016019;28;20211;-78
2022/08/31 06:04:09;;;;;;;8.80;6.00;;;;;;;17.12;100.00;96403.97;4997673;28;20211;-78
2022/08/31 06:06:37;;;;;;;7.37;6.07;;;;;;;17.04;100.00;96390.88;5022784;28;20290;-78
2022/08/31 06:09:07;;;;;;;9.67;6.30;;;;;;;17.12;100.00;96403.97;5010778;28;20257;-78
2022/08/31 06:11:39;;;;;;;8.83;6.37;;;;;;;17.08;100.00;96394.72;4998996;28;20223;-78
2022/08/31 06:14:06;;;;;;;6.70;5.93;;;;;;;17.13;100.00;96393.88;5000778;28;20215;-78
2022/08/31 06:16:35;;;;;;;7.37;5.93;;;;;;;17.10;100.00;96394.44;5015964;28;20227;-79
2022/08/31 06:19:05;;;;;;;6.53;5.93;;;;;;;17.08;100.00;96391.97;4998313;28;20200;-78
2022/08/31 06:21:37;;;;;;;8.73;6.13;;;;;;;17.14;100.00;96395.53;5002576;28;20212;-79
2022/08/31 06:24:08;;;;;;;8.33;6.67;;;;;;;17.19;100.00;96401.81;5020747;28;20303;-77
2022/08/31 06:26:36;;;;;;;6.00;5.40;;;;;;;17.15;100.00;96398.00;5021699;28;20215;-79
2022/08/31 06:29:08;;;;;;;7.73;6.23;;;;;;;17.19;100.00;96396.34;5010886;28;20203;-79
2022/08/31 06:31:45;;;;;;;6.97;5.80;;;;;;;17.23;100.00;96397.47;5029378;28;20227;-79
2022/08/31 06:34:15;;;;;;;9.57;6.03;;;;;;;17.26;100.00;96399.66;5019108;28;20217;-78
2022/08/31 06:36:48;;;;;;;6.90;5.80;;;;;;;17.32;100.00;96406.75;5003968;28;20199;-79
2022/08/31 06:39:32;;;;;;;6.50;5.70;;;;;;;17.28;100.00;96413.81;4996212;28;20286;-79
2022/08/31 06:42:25;;;;;;;7.13;5.37;;;;;;;17.24;100.00;96407.28;4998638;28;20215;-79
2022/08/31 06:45:12;;;;;;;6.00;5.43;;;;;;;17.29;100.00;96403.72;5001584;28;20281;-78
2022/08/31 06:47:49;;;;;;;7.30;5.73;;;;;;;17.32;100.00;96404.03;5007552;28;20219;-79
2022/08/31 06:50:18;;;;;;;6.67;5.17;;;;;;;17.34;100.00;96406.47;5023083;28;20239;-79
2022/08/31 06:52:47;;;;;;;6.40;5.30;;;;;;;17.38;100.00;96405.66;5001776;28;20235;-79
2022/08/31 06:55:24;;;;;;;5.63;4.90;;;;;;;17.43;100.00;96406.75;5017209;28;20219;-79
2022/08/31 06:57:51;;;;;;;5.43;4.83;;;;;;;17.44;100.00;96403.72;4997336;28;20228;-79
2022/08/31 07:00:57;;;;;;;5.60;5.00;;;;;;;17.46;100.00;96406.19;5010363;28;20246;-79
2022/08/31 07:03:32;;;;;;;7.13;4.43;;;;;;;17.44;100.00;96401.00;5007897;28;20210;-79
2022/08/31 07:06:05;;;;;;;6.80;5.37;;;;;;;17.49;100.00;96408.41;5032429;28;20218;-79
2022/08/31 07:08:32;;;;;;;9.50;5.73;;;;;;;17.50;100.00;96399.94;5024878;28;20211;-79
2022/08/31 07:11:02;;;;;;;7.63;5.63;;;;;;;17.55;100.00;96410.03;5005512;28;20208;-79
2022/08/31 07:13:29;;;;;;;6.13;5.10;;;;;;;17.49;100.00;96402.94;4999187;28;20210;-79
2022/08/31 07:16:04;;;;;;;6.13;5.20;;;;;;;17.49;100.00;96408.41;5019834;28;20399;-79
2022/08/31 07:18:32;;;;;;;7.47;5.40;;;;;;;17.50;100.00;96405.41;5016395;28;20207;-79
2022/08/31 07:21:08;;;;;;;5.93;5.20;;;;;;;17.52;100.00;96407.88;5007387;28;20204;-79
2022/08/31 07:23:35;;;;;;;9.47;5.50;;;;;;;17.50;100.00;96408.13;5021942;28;20297;-79
2022/08/31 07:26:13;;;;;;;6.00;5.40;;;;;;;17.53;100.00;96415.75;4998680;28;20211;-79
2022/08/31 07:28:42;;;;;;;6.97;6.03;;;;;;;17.54;100.00;96417.38;5029636;28;20204;-78
2022/08/31 07:31:14;;;;;;;7.87;6.00;;;;;;;17.54;100.00;96416.56;5018626;28;20262;-79
2022/08/31 07:33:42;;;;;;;8.20;6.10;;;;;;;17.54;100.00;96419.31;5021057;28;20203;-80
2022/08/31 07:36:12;;;;;;;7.73;6.17;;;;;;;17.55;100.00;96419.03;5009199;28;20203;-79
2022/08/31 07:44:48;;;;;;;7.00;6.30;;;;;;;17.62;100.00;96424.25;4963554;28;20220;-77
2022/08/31 07:47:18;;;;;;;7.80;6.70;;;;;;;17.62;100.00;96427.81;4997438;28;20316;-77
2022/08/31 07:49:49;;;;;;;6.90;6.00;;;;;;;17.64;100.00;96428.34;5019061;28;20221;-78
2022/08/31 07:52:46;;;;;;;6.57;5.80;;;;;;;17.53;100.00;96423.94;5020097;28;20270;-77
2022/08/31 07:55:34;;;;;;;6.40;5.20;;;;;;;17.51;100.00;96428.06;5004273;28;20228;-77
2022/08/31 07:58:04;;;;;;;10.00;5.23;;;;;;;17.47;100.00;96432.41;5019418;28;20214;-78
2022/08/31 08:00:34;;;;;;;6.50;4.90;;;;;;;17.48;100.00;96436.78;4999886;28;20209;-78
2022/08/31 08:03:05;;;;;;;5.40;4.90;;;;;;;17.53;100.00;96436.78;5014450;28;20204;-77
2022/08/31 08:05:40;;;;;;;5.27;4.77;;;;;;;17.59;100.00;96446.63;5019882;28;20250;-78
2022/08/31 08:08:26;;;;;;;6.60;5.20;;;;;;;17.63;100.00;96442.28;5001340;28;20861;-78
2022/08/31 08:11:16;;;;;;;5.37;4.87;;;;;;;17.60;100.00;96442.81;5009092;28;20226;-78
2022/08/31 08:13:54;;;;;;;8.17;5.07;;;;;;;17.58;100.00;96444.97;5023946;28;20218;-78
2022/08/31 08:16:31;;;;;;;6.03;5.43;;;;;;;17.59;100.00;96442.00;5030156;28;20242;-78
2022/08/31 08:19:28;;;;;;;6.07;5.47;;;;;;;17.61;100.00;96444.41;5001260;28;20227;-78
2022/08/31 08:21:55;;;;;;;6.67;5.67;;;;;;;17.63;100.00;96445.81;5023170;28;20212;-77
2022/08/31 08:24:25;;;;;;;6.00;5.40;;;;;;;17.61;100.00;96444.41;5027638;28;20199;-78
2022/08/31 08:27:26;;;;;;;7.90;5.07;;;;;;;17.61;100.00;96453.44;5015587;28;20202;-78
2022/08/31 08:30:13;;;;;;;5.43;4.93;;;;;;;17.60;100.00;96449.09;5020391;28;20218;-78
2022/08/31 08:32:42;;;;;;;6.73;5.00;;;;;;;17.66;100.00;96458.94;4999196;28;20282;-78
2022/08/31 08:35:09;;;;;;;6.63;5.17;;;;;;;17.67;100.00;96457.84;5026421;28;20203;-78
2022/08/31 08:37:39;;;;;;;5.93;5.13;;;;;;;17.68;100.00;96466.88;5004832;28;20231;-78
2022/08/31 08:40:13;;;;;;;6.90;5.20;;;;;;;17.67;100.00;96454.31;5022449;28;20210;-78
2022/08/31 08:42:43;;;;;;;6.40;5.80;;;;;;;17.70;100.00;96464.66;5008106;28;20279;-78
2022/08/31 08:45:12;;;;;;;6.63;5.63;;;;;;;17.70;100.00;96467.41;5011012;28;20306;-78
2022/08/31 08:47:40;;;;;;;7.07;6.10;;;;;;;17.69;100.00;96466.56;5008409;28;20211;-77
2022/08/31 08:50:10;;;;;;;6.63;5.90;;;;;;;17.73;100.00;96467.69;5017437;28;20213;-78
2022/08/31 08:52:42;;;;;;;6.30;5.60;;;;;;;17.80;100.00;96470.13;4999180;28;20313;-78
2022/08/31 08:55:14;;;;;;;7.07;5.47;;;;;;;17.83;100.00;96466.88;5023379;28;20310;-78
2022/08/31 08:57:43;;;;;;;7.73;5.53;;;;;;;17.80;100.00;96472.88;5022669;28;20226;-77
2022/08/31 09:00:17;;;;;;;9.73;5.93;;;;;;;17.78;100.00;96472.31;5006877;28;20207;-78
2022/08/31 09:02:57;;;;;;;6.70;5.60;;;;;;;17.79;100.00;96468.50;5011184;28;20364;-78
2022/08/31 09:05:58;;;;;;;8.30;5.63;;;;;;;17.84;100.00;96471.25;5024114;28;20212;-78
2022/08/31 09:09:09;;;;;;;6.53;5.93;;;;;;;17.84;100.00;96464.97;5021111;28;20277;-78
2022/08/31 09:12:03;;;;;;;7.70;6.40;;;;;;;17.87;100.00;96472.59;5019185;28;20204;-78
2022/08/31 09:15:00;;;;;;;7.10;6.30;;;;;;;17.84;100.00;96473.16;4996082;28;20212;-78
2022/08/31 09:17:41;;;;;;;8.47;6.03;;;;;;;17.93;100.00;96464.16;5012508;28;20298;-78
2022/08/31 09:20:11;;;;;;;7.33;6.03;;;;;;;18.04;100.00;96463.03;5013190;28;20208;-78
2022/08/31 09:22:45;;;;;;;8.00;5.47;;;;;;;18.09;100.00;96463.03;5000476;28;20547;-78
2022/08/31 09:25:18;;;;;;;7.03;5.67;;;;;;;17.98;100.00;96458.66;5026220;28;20203;-77
2022/08/31 09:28:02;;;;;;;6.27;5.63;;;;;;;18.10;100.00;96469.31;5000646;28;20215;-77
2022/08/31 09:30:38;;;;;;;7.87;6.00;;;;;;;18.10;100.00;96472.06;5004588;28;20203;-77
2022/08/31 09:33:16;;;;;;;7.10;6.40;;;;;;;18.17;100.00;96475.31;5004355;28;20232;-77
2022/08/31 09:35:44;;;;;;;6.43;5.60;;;;;;;18.29;100.00;96464.91;4997458;28;20273;-77
2022/08/31 09:38:16;;;;;;;7.30;5.80;;;;;;;18.42;100.00;96471.72;4993728;28;20236;-77
2022/08/31 09:40:48;;;;;;;7.67;5.70;;;;;;;18.52;100.00;96469.78;5007935;28;20269;-77
2022/08/31 09:43:26;;;;;;;6.37;5.77;;;;;;;18.49;100.00;96466.78;5007345;28;20215;-78
2022/08/31 09:45:58;;;;;;;7.07;5.87;;;;;;;18.44;100.00;96469.53;5013219;28;20199;-77
2022/08/31 09:48:42;;;;;;;6.07;5.47;;;;;;;18.56;100.00;96470.03;5009508;28;20303;-77
2022/08/31 09:51:11;;;;;;;6.73;5.63;;;;;;;18.63;100.00;96467.06;5007739;28;20202;-77
2022/08/31 09:56:28;;;;;;;8.03;5.27;;;;;;;18.92;100.00;96475.41;5004322;28;20211;-77
2022/08/31 09:59:00;;;;;;;6.43;5.20;;;;;;;19.02;100.00;96465.25;5005332;28;20196;-77
2022/08/31 10:01:37;;;;;;;6.07;4.85;;;;;;;19.11;100.00;96457.28;5023092;28;20215;-77
2022/08/31 10:04:15;;;;;;;6.30;5.25;;;;;;;19.18;100.00;96458.59;5002512;28;20221;-78
2022/08/31 10:06:54;;;;;;;5.90;5.30;;;;;;;19.22;100.00;96456.91;5009475;28;20200;-79
2022/08/31 10:09:32;;;;;;;6.10;5.50;;;;;;;19.27;100.00;96456.09;5020542;28;20209;-79
2022/08/31 10:12:03;;;;;;;6.38;5.78;;;;;;;19.23;100.00;96472.25;5012966;28;20215;-78
2022/08/31 10:14:37;;;;;;;5.65;5.13;;;;;;;19.21;100.00;96465.44;4999970;28;20250;-79
2022/08/31 10:17:13;;;;;;;6.15;5.45;;;;;;;19.22;100.00;96473.34;5003201;28;20223;-79
2022/08/31 10:19:55;;;;;;;9.27;6.28;;;;;;;19.23;100.00;96469.50;5002097;28;20215;-78
2022/08/31 10:22:33;;;;;;;12.63;6.60;;;;;;;19.28;100.00;96466.75;5016067;28;20204;-78
2022/08/31 10:25:17;;;;;;;9.50;5.50;;;;;;;19.16;100.00;96471.75;5017852;28;20281;-77
2022/08/31 10:27:47;;;;;;;6.00;5.38;;;;;;;19.15;100.00;96463.81;5019885;28;20212;-81
2022/08/31 10:30:28;;;;;;;4.75;3.90;;;;;;;19.15;100.00;96464.63;5017588;28;20235;-77
2022/08/31 10:33:01;;;;;;;4.05;3.60;;;;;;;19.19;100.00;96464.91;5000286;28;20217;-77
2022/08/31 10:35:36;;;;;;;2.80;2.25;;;;;;;19.16;100.00;96465.44;5019693;28;20218;-77
2022/08/31 10:38:16;;;;;;;2.58;2.38;;;;;;;19.19;100.00;96471.19;5018662;28;20258;-77
2022/08/31 10:40:49;;;;;;;2.30;2.10;;;;;;;19.23;100.00;96455.81;5021953;28;20287;-77
2022/08/31 10:43:20;;;;;;;2.70;1.90;;;;;;;19.32;100.00;96457.97;5002699;28;20207;-77
2022/08/31 10:45:50;;;;;;;2.50;1.80;;;;;;;19.39;100.00;96458.50;5025232;28;20291;-77
2022/08/31 10:48:20;;;;;;;1.90;1.70;;;;;;;19.18;100.00;96460.53;5008243;28;20211;-77
2022/08/31 10:50:56;;;;;;;2.30;2.03;;;;;;;19.20;100.00;96455.59;5009117;28;20195;-77
2022/08/31 10:53:51;;;;;;;2.00;1.75;;;;;;;19.25;100.00;96452.81;5010193;28;20237;-77
2022/08/31 10:56:26;;;;;;;1.57;1.40;;;;;;;19.32;100.00;96450.56;5012330;28;20235;-77
2022/08/31 10:59:08;;;;;;;2.25;1.50;;;;;;;19.43;100.00;96443.94;5021396;28;20282;-77
2022/08/31 11:01:48;;;;;;;1.75;1.65;;;;;;;19.48;100.00;96437.66;5004450;28;20203;-77
2022/08/31 11:04:33;;;;;;;1.73;1.63;;;;;;;19.47;100.00;96444.19;5020190;28;20203;-77
2022/08/31 11:07:12;;;;;;;2.58;1.60;;;;;;;19.52;100.00;96438.72;5006487;28;20188;-77
2022/08/31 11:09:48;;;;;;;2.70;1.70;;;;;;;19.43;100.00;96443.94;5001016;28;20218;-78
2022/08/31 11:12:20;;;;;;;1.83;1.70;;;;;;;19.47;100.00;96446.94;5023597;28;20246;-77
2022/08/31 11:15:24;;;;;;;1.60;1.50;;;;;;;19.47;100.00;96441.47;5018597;28;20301;-78
2022/08/31 11:18:09;;;;;;;2.23;1.67;;;;;;;19.56;100.00;96434.31;5000935;28;20208;-78
2022/08/31 11:21:03;;;;;;;2.72;1.80;;;;;;;19.73;100.00;96442.13;5000156;28;20215;-78
2022/08/31 11:23:48;;;;;;;1.75;1.65;;;;;;;19.74;100.00;96438.25;5012905;28;20211;-78
2022/08/31 11:26:50;;;;;;;1.95;1.80;;;;;;;19.85;100.00;96437.06;5019983;28;20207;-78
2022/08/31 11:29:36;;;;;;;3.05;1.67;;;;;;;19.88;100.00;96444.72;4992946;28;20224;-77
2022/08/31 11:32:12;;;;;;;2.40;1.95;;;;;;;19.84;100.00;96439.00;5008449;28;20217;-77
2022/08/31 11:34:49;;;;;;;2.00;1.80;;;;;;;19.80;100.00;96437.13;5006053;28;20219;-78
2022/08/31 11:37:50;;;;;;;2.00;1.80;;;;;;;19.68;100.00;96436.66;5007747;28;20234;-78
2022/08/31 11:40:51;;;;;;;4.68;2.10;;;;;;;19.62;100.00;96441.38;5004545;28;20241;-78
2022/08/31 11:43:50;;;;;;;2.30;1.95;;;;;;;19.49;100.00;96440.09;5003846;28;20298;-78
2022/08/31 11:46:57;;;;;;;1.60;1.50;;;;;;;19.45;100.00;96436.25;5028587;28;20237;-78
2022/08/31 11:49:43;;;;;;;3.50;1.70;;;;;;;19.40;100.00;96439.03;5003196;28;20298;-78
2022/08/31 11:52:28;;;;;;;1.93;1.77;;;;;;;19.42;100.00;96431.34;5022477;28;20203;-78
2022/08/31 11:55:10;;;;;;;2.13;1.90;;;;;;;19.48;100.00;96440.41;5012189;28;20200;-77
2022/08/31 11:58:15;;;;;;;3.13;2.23;;;;;;;19.56;100.00;96437.06;4997827;28;20301;-77
2022/08/31 12:00:52;;;;;;;3.27;1.90;;;;;;;19.73;100.00;96432.00;5023509;28;20246;-77
2022/08/31 12:03:50;;;;;;;6.68;2.60;;;;;;;19.80;100.00;96432.47;5021448;28;20214;-77
2022/08/31 12:07:06;;;;;;;3.28;1.70;;;;;;;19.94;100.00;96427.13;4972179;28;20222;-76